sensor_id;sensor_type;location;lat;lon;timestamp;P1;durP1;ratioP1;P2;durP2;ratioP2
21170;SDS011;10743;52.160;20.910;2022-10-29T00:00:51;18.73;;;9.57;;
21170;SDS011;10743;52.160;20.910;2022-10-29T00:03:20;15.70;;;8.52;;
21170;SDS011;10743;52.160;20.910;2022-10-29T00:05:55;18.20;;;8.63;;
21170;SDS011;10743;52.160;20.910;2022-10-29T00:08:25;18.92;;;9.32;;
21170;SDS011;10743;52.160;20.910;2022-10-29T00:10:53;20.08;;;9.65;;
21170;SDS011;10743;52.160;20.910;2022-10-29T00:13:22;13.80;;;8.55;;
21170;SDS011;10743;52.160;20.910;2022-10-29T00:15:49;22.70;;;9.45;;
21170;SDS011;10743;52.160;20.910;2022-10-29T00:18:16;19.42;;;9.82;;
21170;SDS011;10743;52.160;20.910;2022-10-29T00:20:43;17.17;;;9.48;;
21170;SDS011;10743;52.160;20.910;2022-10-29T00:23:09;18.58;;;9.07;;
21170;SDS011;10743;52.160;20.910;2022-10-29T00:25:36;19.15;;;9.23;;
21170;SDS011;10743;52.160;20.910;2022-10-29T00:28:03;21.00;;;9.57;;
21170;SDS011;10743;52.160;20.910;2022-10-29T00:30:30;19.33;;;9.15;;
21170;SDS011;10743;52.160;20.910;2022-10-29T00:32:57;21.33;;;9.80;;
21170;SDS011;10743;52.160;20.910;2022-10-29T00:35:24;16.65;;;8.52;;
21170;SDS011;10743;52.160;20.910;2022-10-29T00:37:51;18.80;;;8.80;;
21170;SDS011;10743;52.160;20.910;2022-10-29T00:40:18;14.70;;;8.07;;
21170;SDS011;10743;52.160;20.910;2022-10-29T00:42:45;14.57;;;8.82;;
21170;SDS011;10743;52.160;20.910;2022-10-29T00:45:19;14.93;;;8.02;;
21170;SDS011;10743;52.160;20.910;2022-10-29T00:47:48;17.98;;;8.93;;
21170;SDS011;10743;52.160;20.910;2022-10-29T00:50:18;12.90;;;7.88;;
21170;SDS011;10743;52.160;20.910;2022-10-29T00:52:47;16.48;;;8.35;;
21170;SDS011;10743;52.160;20.910;2022-10-29T00:55:16;14.55;;;8.30;;
21170;SDS011;10743;52.160;20.910;2022-10-29T00:57:46;16.63;;;8.25;;
21170;SDS011;10743;52.160;20.910;2022-10-29T01:00:18;16.00;;;7.43;;
21170;SDS011;10743;52.160;20.910;2022-10-29T01:02:45;18.48;;;8.30;;
21170;SDS011;10743;52.160;20.910;2022-10-29T01:05:14;15.98;;;8.07;;
21170;SDS011;10743;52.160;20.910;2022-10-29T01:07:45;21.65;;;8.13;;
21170;SDS011;10743;52.160;20.910;2022-10-29T01:10:12;16.45;;;8.20;;
21170;SDS011;10743;52.160;20.910;2022-10-29T01:18:04;17.88;;;8.25;;
21170;SDS011;10743;52.160;20.910;2022-10-29T01:32:03;17.88;;;7.80;;
21170;SDS011;10743;52.160;20.910;2022-10-29T01:34:39;15.18;;;7.32;;
21170;SDS011;10743;52.160;20.910;2022-10-29T01:39:56;14.57;;;7.78;;
21170;SDS011;10743;52.160;20.910;2022-10-29T01:42:34;18.02;;;8.45;;
21170;SDS011;10743;52.160;20.910;2022-10-29T01:48:12;18.42;;;8.68;;
21170;SDS011;10743;52.160;20.910;2022-10-29T01:50:45;18.15;;;8.43;;
21170;SDS011;10743;52.160;20.910;2022-10-29T01:53:16;19.77;;;8.68;;
21170;SDS011;10743;52.160;20.910;2022-10-29T01:55:44;17.70;;;8.30;;
21170;SDS011;10743;52.160;20.910;2022-10-29T01:58:11;17.95;;;8.40;;
21170;SDS011;10743;52.160;20.910;2022-10-29T02:01:14;18.75;;;8.48;;
21170;SDS011;10743;52.160;20.910;2022-10-29T02:03:42;16.15;;;8.27;;
21170;SDS011;10743;52.160;20.910;2022-10-29T02:06:42;15.50;;;7.55;;
21170;SDS011;10743;52.160;20.910;2022-10-29T02:12:41;15.52;;;7.78;;
21170;SDS011;10743;52.160;20.910;2022-10-29T02:15:18;15.48;;;7.32;;
21170;SDS011;10743;52.160;20.910;2022-10-29T02:18:01;15.95;;;8.13;;
21170;SDS011;10743;52.160;20.910;2022-10-29T02:20:31;17.00;;;7.38;;
21170;SDS011;10743;52.160;20.910;2022-10-29T02:22:58;17.05;;;8.15;;
21170;SDS011;10743;52.160;20.910;2022-10-29T02:25:26;15.20;;;7.55;;
21170;SDS011;10743;52.160;20.910;2022-10-29T02:27:57;15.38;;;7.35;;
21170;SDS011;10743;52.160;20.910;2022-10-29T02:30:24;13.63;;;7.32;;
21170;SDS011;10743;52.160;20.910;2022-10-29T02:32:51;17.73;;;7.93;;
21170;SDS011;10743;52.160;20.910;2022-10-29T02:35:18;13.40;;;7.55;;
21170;SDS011;10743;52.160;20.910;2022-10-29T02:37:45;18.77;;;8.00;;
21170;SDS011;10743;52.160;20.910;2022-10-29T02:40:12;16.77;;;7.50;;
21170;SDS011;10743;52.160;20.910;2022-10-29T02:42:39;18.85;;;8.10;;
21170;SDS011;10743;52.160;20.910;2022-10-29T02:45:06;20.95;;;8.43;;
21170;SDS011;10743;52.160;20.910;2022-10-29T02:47:33;12.32;;;6.93;;
21170;SDS011;10743;52.160;20.910;2022-10-29T02:50:00;17.73;;;7.38;;
21170;SDS011;10743;52.160;20.910;2022-10-29T02:52:27;16.92;;;7.45;;
21170;SDS011;10743;52.160;20.910;2022-10-29T02:54:54;15.68;;;6.80;;
21170;SDS011;10743;52.160;20.910;2022-10-29T02:57:20;13.82;;;6.85;;
21170;SDS011;10743;52.160;20.910;2022-10-29T02:59:47;16.70;;;6.78;;
21170;SDS011;10743;52.160;20.910;2022-10-29T03:02:14;15.35;;;7.32;;
21170;SDS011;10743;52.160;20.910;2022-10-29T03:04:41;16.73;;;6.93;;
21170;SDS011;10743;52.160;20.910;2022-10-29T03:07:09;18.20;;;7.13;;
21170;SDS011;10743;52.160;20.910;2022-10-29T03:09:36;17.55;;;7.30;;
21170;SDS011;10743;52.160;20.910;2022-10-29T03:12:03;16.25;;;7.07;;
21170;SDS011;10743;52.160;20.910;2022-10-29T03:14:31;15.85;;;7.10;;
21170;SDS011;10743;52.160;20.910;2022-10-29T03:16:58;21.45;;;7.10;;
21170;SDS011;10743;52.160;20.910;2022-10-29T03:19:24;18.67;;;7.70;;
21170;SDS011;10743;52.160;20.910;2022-10-29T03:21:51;19.45;;;7.28;;
21170;SDS011;10743;52.160;20.910;2022-10-29T03:24:18;16.10;;;6.97;;
21170;SDS011;10743;52.160;20.910;2022-10-29T03:26:45;18.85;;;6.88;;
21170;SDS011;10743;52.160;20.910;2022-10-29T03:29:12;20.50;;;7.30;;
21170;SDS011;10743;52.160;20.910;2022-10-29T03:31:39;19.30;;;7.00;;
21170;SDS011;10743;52.160;20.910;2022-10-29T03:34:05;13.73;;;7.00;;
21170;SDS011;10743;52.160;20.910;2022-10-29T03:36:32;14.57;;;7.10;;
21170;SDS011;10743;52.160;20.910;2022-10-29T03:38:59;16.42;;;7.35;;
21170;SDS011;10743;52.160;20.910;2022-10-29T03:41:26;15.07;;;6.63;;
21170;SDS011;10743;52.160;20.910;2022-10-29T03:43:53;15.23;;;6.85;;
21170;SDS011;10743;52.160;20.910;2022-10-29T03:46:21;21.15;;;7.00;;
21170;SDS011;10743;52.160;20.910;2022-10-29T03:48:48;17.77;;;7.00;;
21170;SDS011;10743;52.160;20.910;2022-10-29T03:51:15;17.38;;;7.63;;
21170;SDS011;10743;52.160;20.910;2022-10-29T03:53:42;14.40;;;6.65;;
21170;SDS011;10743;52.160;20.910;2022-10-29T03:56:09;19.17;;;7.60;;
21170;SDS011;10743;52.160;20.910;2022-10-29T03:58:36;18.55;;;7.50;;
21170;SDS011;10743;52.160;20.910;2022-10-29T04:01:04;17.17;;;6.90;;
21170;SDS011;10743;52.160;20.910;2022-10-29T04:03:33;16.77;;;6.80;;
21170;SDS011;10743;52.160;20.910;2022-10-29T04:06:07;24.15;;;7.90;;
21170;SDS011;10743;52.160;20.910;2022-10-29T04:08:39;19.95;;;6.53;;
21170;SDS011;10743;52.160;20.910;2022-10-29T04:11:07;19.38;;;6.95;;
21170;SDS011;10743;52.160;20.910;2022-10-29T04:13:38;15.60;;;6.68;;
21170;SDS011;10743;52.160;20.910;2022-10-29T04:16:05;15.70;;;7.07;;
21170;SDS011;10743;52.160;20.910;2022-10-29T04:18:32;15.70;;;6.60;;
21170;SDS011;10743;52.160;20.910;2022-10-29T04:21:00;17.25;;;6.95;;
21170;SDS011;10743;52.160;20.910;2022-10-29T04:23:48;18.25;;;6.13;;
21170;SDS011;10743;52.160;20.910;2022-10-29T04:26:35;14.65;;;6.38;;
21170;SDS011;10743;52.160;20.910;2022-10-29T04:29:22;16.52;;;6.85;;
21170;SDS011;10743;52.160;20.910;2022-10-29T04:31:49;18.95;;;6.63;;
21170;SDS011;10743;52.160;20.910;2022-10-29T04:34:16;16.65;;;6.40;;
21170;SDS011;10743;52.160;20.910;2022-10-29T04:36:43;16.98;;;6.38;;
21170;SDS011;10743;52.160;20.910;2022-10-29T04:39:09;17.25;;;6.57;;
21170;SDS011;10743;52.160;20.910;2022-10-29T04:41:36;23.45;;;6.65;;
21170;SDS011;10743;52.160;20.910;2022-10-29T04:44:03;24.65;;;6.88;;
21170;SDS011;10743;52.160;20.910;2022-10-29T04:46:30;17.77;;;6.50;;
21170;SDS011;10743;52.160;20.910;2022-10-29T04:48:57;15.45;;;6.18;;
21170;SDS011;10743;52.160;20.910;2022-10-29T04:51:24;14.57;;;6.18;;
21170;SDS011;10743;52.160;20.910;2022-10-29T04:53:52;21.45;;;6.80;;
21170;SDS011;10743;52.160;20.910;2022-10-29T04:56:19;18.45;;;6.50;;
21170;SDS011;10743;52.160;20.910;2022-10-29T04:58:48;20.15;;;6.28;;
21170;SDS011;10743;52.160;20.910;2022-10-29T05:01:17;16.63;;;6.20;;
21170;SDS011;10743;52.160;20.910;2022-10-29T05:03:44;20.48;;;6.88;;
21170;SDS011;10743;52.160;20.910;2022-10-29T05:06:11;15.70;;;6.55;;
21170;SDS011;10743;52.160;20.910;2022-10-29T05:08:38;14.00;;;5.80;;
21170;SDS011;10743;52.160;20.910;2022-10-29T05:11:05;20.50;;;7.35;;
21170;SDS011;10743;52.160;20.910;2022-10-29T05:13:32;16.35;;;6.30;;
21170;SDS011;10743;52.160;20.910;2022-10-29T05:16:00;19.30;;;6.30;;
21170;SDS011;10743;52.160;20.910;2022-10-29T05:18:27;14.55;;;6.78;;
21170;SDS011;10743;52.160;20.910;2022-10-29T05:20:54;18.77;;;6.55;;
21170;SDS011;10743;52.160;20.910;2022-10-29T05:23:21;19.60;;;5.90;;
21170;SDS011;10743;52.160;20.910;2022-10-29T05:25:48;15.10;;;6.20;;
21170;SDS011;10743;52.160;20.910;2022-10-29T05:28:18;16.00;;;6.38;;
21170;SDS011;10743;52.160;20.910;2022-10-29T05:30:48;17.30;;;6.18;;
21170;SDS011;10743;52.160;20.910;2022-10-29T05:33:21;14.77;;;6.45;;
21170;SDS011;10743;52.160;20.910;2022-10-29T05:35:49;14.07;;;5.90;;
21170;SDS011;10743;52.160;20.910;2022-10-29T05:38:17;16.17;;;6.38;;
21170;SDS011;10743;52.160;20.910;2022-10-29T05:40:44;20.42;;;6.45;;
21170;SDS011;10743;52.160;20.910;2022-10-29T05:43:12;18.08;;;6.63;;
21170;SDS011;10743;52.160;20.910;2022-10-29T05:45:40;19.30;;;7.05;;
21170;SDS011;10743;52.160;20.910;2022-10-29T05:48:08;20.00;;;6.45;;
21170;SDS011;10743;52.160;20.910;2022-10-29T05:50:37;17.85;;;7.32;;
21170;SDS011;10743;52.160;20.910;2022-10-29T05:53:05;15.32;;;7.47;;
21170;SDS011;10743;52.160;20.910;2022-10-29T05:55:35;15.77;;;6.43;;
21170;SDS011;10743;52.160;20.910;2022-10-29T05:58:06;17.13;;;5.93;;
21170;SDS011;10743;52.160;20.910;2022-10-29T06:00:38;15.50;;;6.32;;
21170;SDS011;10743;52.160;20.910;2022-10-29T06:03:09;15.88;;;5.90;;
21170;SDS011;10743;52.160;20.910;2022-10-29T06:05:40;17.80;;;6.80;;
21170;SDS011;10743;52.160;20.910;2022-10-29T06:08:08;15.63;;;6.65;;
21170;SDS011;10743;52.160;20.910;2022-10-29T06:10:35;16.05;;;6.22;;
21170;SDS011;10743;52.160;20.910;2022-10-29T06:13:07;18.80;;;6.18;;
21170;SDS011;10743;52.160;20.910;2022-10-29T06:15:38;15.52;;;6.10;;
21170;SDS011;10743;52.160;20.910;2022-10-29T06:18:06;22.42;;;7.03;;
21170;SDS011;10743;52.160;20.910;2022-10-29T06:20:33;17.38;;;6.60;;
21170;SDS011;10743;52.160;20.910;2022-10-29T06:23:00;22.90;;;8.50;;
21170;SDS011;10743;52.160;20.910;2022-10-29T06:25:27;30.63;;;7.68;;
21170;SDS011;10743;52.160;20.910;2022-10-29T06:27:58;17.58;;;7.25;;
21170;SDS011;10743;52.160;20.910;2022-10-29T06:30:33;16.48;;;6.53;;
21170;SDS011;10743;52.160;20.910;2022-10-29T06:33:01;11.27;;;6.15;;
21170;SDS011;10743;52.160;20.910;2022-10-29T06:35:29;14.45;;;5.47;;
21170;SDS011;10743;52.160;20.910;2022-10-29T06:37:57;15.85;;;6.25;;
21170;SDS011;10743;52.160;20.910;2022-10-29T06:40:24;14.18;;;5.90;;
21170;SDS011;10743;52.160;20.910;2022-10-29T06:42:58;13.68;;;5.47;;
21170;SDS011;10743;52.160;20.910;2022-10-29T06:45:30;17.33;;;6.45;;
21170;SDS011;10743;52.160;20.910;2022-10-29T06:47:59;14.38;;;5.65;;
21170;SDS011;10743;52.160;20.910;2022-10-29T06:50:27;15.63;;;5.95;;
21170;SDS011;10743;52.160;20.910;2022-10-29T06:52:58;14.23;;;6.15;;
21170;SDS011;10743;52.160;20.910;2022-10-29T06:55:27;17.77;;;6.70;;
21170;SDS011;10743;52.160;20.910;2022-10-29T06:57:55;15.73;;;5.65;;
21170;SDS011;10743;52.160;20.910;2022-10-29T07:00:27;15.60;;;6.55;;
21170;SDS011;10743;52.160;20.910;2022-10-29T07:02:55;22.48;;;6.15;;
21170;SDS011;10743;52.160;20.910;2022-10-29T07:05:23;15.00;;;5.82;;
21170;SDS011;10743;52.160;20.910;2022-10-29T07:07:54;15.65;;;5.93;;
21170;SDS011;10743;52.160;20.910;2022-10-29T07:10:25;16.98;;;5.70;;
21170;SDS011;10743;52.160;20.910;2022-10-29T07:12:54;18.40;;;6.38;;
21170;SDS011;10743;52.160;20.910;2022-10-29T07:15:21;14.95;;;6.15;;
21170;SDS011;10743;52.160;20.910;2022-10-29T07:20:28;21.42;;;6.30;;
21170;SDS011;10743;52.160;20.910;2022-10-29T07:22:59;14.40;;;5.90;;
21170;SDS011;10743;52.160;20.910;2022-10-29T07:25:27;12.93;;;5.70;;
21170;SDS011;10743;52.160;20.910;2022-10-29T07:27:54;22.30;;;6.95;;
21170;SDS011;10743;52.160;20.910;2022-10-29T07:30:32;18.52;;;6.90;;
21170;SDS011;10743;52.160;20.910;2022-10-29T07:32:59;12.00;;;5.65;;
21170;SDS011;10743;52.160;20.910;2022-10-29T07:35:26;16.88;;;6.55;;
21170;SDS011;10743;52.160;20.910;2022-10-29T07:37:57;15.88;;;6.38;;
21170;SDS011;10743;52.160;20.910;2022-10-29T07:40:35;16.98;;;6.47;;
21170;SDS011;10743;52.160;20.910;2022-10-29T07:43:03;18.05;;;6.80;;
21170;SDS011;10743;52.160;20.910;2022-10-29T07:45:30;13.50;;;6.70;;
21170;SDS011;10743;52.160;20.910;2022-10-29T07:47:59;18.73;;;6.60;;
21170;SDS011;10743;52.160;20.910;2022-10-29T07:50:32;18.00;;;6.22;;
21170;SDS011;10743;52.160;20.910;2022-10-29T07:52:59;14.00;;;6.20;;
21170;SDS011;10743;52.160;20.910;2022-10-29T07:55:27;22.98;;;7.65;;
21170;SDS011;10743;52.160;20.910;2022-10-29T07:58:06;21.40;;;6.78;;
21170;SDS011;10743;52.160;20.910;2022-10-29T08:00:38;13.98;;;6.50;;
21170;SDS011;10743;52.160;20.910;2022-10-29T08:03:06;12.75;;;6.03;;
21170;SDS011;10743;52.160;20.910;2022-10-29T08:05:33;19.65;;;7.35;;
21170;SDS011;10743;52.160;20.910;2022-10-29T08:08:00;16.95;;;6.40;;
21170;SDS011;10743;52.160;20.910;2022-10-29T08:10:28;19.60;;;6.32;;
21170;SDS011;10743;52.160;20.910;2022-10-29T08:12:56;16.55;;;6.65;;
21170;SDS011;10743;52.160;20.910;2022-10-29T08:15:27;19.65;;;6.97;;
21170;SDS011;10743;52.160;20.910;2022-10-29T08:17:56;17.55;;;6.75;;
21170;SDS011;10743;52.160;20.910;2022-10-29T08:20:24;23.45;;;7.32;;
21170;SDS011;10743;52.160;20.910;2022-10-29T08:22:53;19.08;;;8.18;;
21170;SDS011;10743;52.160;20.910;2022-10-29T08:25:21;16.42;;;6.55;;
21170;SDS011;10743;52.160;20.910;2022-10-29T08:28:06;22.33;;;7.25;;
21170;SDS011;10743;52.160;20.910;2022-10-29T08:30:36;13.40;;;6.43;;
21170;SDS011;10743;52.160;20.910;2022-10-29T08:33:04;12.82;;;6.05;;
21170;SDS011;10743;52.160;20.910;2022-10-29T08:35:31;14.85;;;6.15;;
21170;SDS011;10743;52.160;20.910;2022-10-29T08:37:59;15.65;;;7.10;;
21170;SDS011;10743;52.160;20.910;2022-10-29T08:40:42;14.40;;;6.88;;
21170;SDS011;10743;52.160;20.910;2022-10-29T08:49:27;18.55;;;6.75;;
21170;SDS011;10743;52.160;20.910;2022-10-29T08:52:02;19.58;;;8.65;;
21170;SDS011;10743;52.160;20.910;2022-10-29T08:54:37;21.48;;;7.53;;
21170;SDS011;10743;52.160;20.910;2022-10-29T08:57:10;27.92;;;9.52;;
21170;SDS011;10743;52.160;20.910;2022-10-29T09:00:24;17.55;;;7.53;;
21170;SDS011;10743;52.160;20.910;2022-10-29T09:02:36;18.73;;;8.27;;
21170;SDS011;10743;52.160;20.910;2022-10-29T09:05:10;28.92;;;10.35;;
21170;SDS011;10743;52.160;20.910;2022-10-29T09:16:14;20.08;;;8.88;;
21170;SDS011;10743;52.160;20.910;2022-10-29T09:19:14;20.17;;;8.20;;
21170;SDS011;10743;52.160;20.910;2022-10-29T09:22:16;21.35;;;9.20;;
21170;SDS011;10743;52.160;20.910;2022-10-29T09:24:57;23.02;;;9.00;;
21170;SDS011;10743;52.160;20.910;2022-10-29T09:30:31;20.27;;;8.63;;
21170;SDS011;10743;52.160;20.910;2022-10-29T09:33:10;20.70;;;8.52;;
21170;SDS011;10743;52.160;20.910;2022-10-29T09:35:42;27.05;;;8.00;;
21170;SDS011;10743;52.160;20.910;2022-10-29T09:38:14;14.90;;;7.28;;
21170;SDS011;10743;52.160;20.910;2022-10-29T09:40:44;20.55;;;8.23;;
21170;SDS011;10743;52.160;20.910;2022-10-29T09:43:17;28.73;;;8.68;;
21170;SDS011;10743;52.160;20.910;2022-10-29T09:46:03;17.30;;;8.10;;
21170;SDS011;10743;52.160;20.910;2022-10-29T09:54:42;24.10;;;8.30;;
21170;SDS011;10743;52.160;20.910;2022-10-29T09:57:13;24.88;;;10.00;;
21170;SDS011;10743;52.160;20.910;2022-10-29T09:59:49;22.58;;;8.15;;
21170;SDS011;10743;52.160;20.910;2022-10-29T10:02:30;16.42;;;7.32;;
21170;SDS011;10743;52.160;20.910;2022-10-29T10:05:13;21.45;;;8.88;;
21170;SDS011;10743;52.160;20.910;2022-10-29T10:08:04;15.52;;;8.77;;
21170;SDS011;10743;52.160;20.910;2022-10-29T10:10:50;28.65;;;10.00;;
21170;SDS011;10743;52.160;20.910;2022-10-29T10:13:24;22.98;;;10.38;;
21170;SDS011;10743;52.160;20.910;2022-10-29T10:15:55;22.70;;;9.55;;
21170;SDS011;10743;52.160;20.910;2022-10-29T10:18:25;22.70;;;9.75;;
21170;SDS011;10743;52.160;20.910;2022-10-29T10:21:06;22.92;;;10.50;;
21170;SDS011;10743;52.160;20.910;2022-10-29T10:23:46;27.35;;;10.57;;
21170;SDS011;10743;52.160;20.910;2022-10-29T10:31:37;26.85;;;10.95;;
21170;SDS011;10743;52.160;20.910;2022-10-29T10:34:16;30.52;;;12.00;;
21170;SDS011;10743;52.160;20.910;2022-10-29T10:36:49;40.85;;;13.82;;
21170;SDS011;10743;52.160;20.910;2022-10-29T10:39:31;30.98;;;13.00;;
21170;SDS011;10743;52.160;20.910;2022-10-29T10:42:25;27.38;;;11.65;;
21170;SDS011;10743;52.160;20.910;2022-10-29T10:45:00;31.63;;;13.18;;
21170;SDS011;10743;52.160;20.910;2022-10-29T10:47:40;26.20;;;12.95;;
21170;SDS011;10743;52.160;20.910;2022-10-29T10:50:21;29.90;;;12.55;;
21170;SDS011;10743;52.160;20.910;2022-10-29T10:53:02;26.58;;;12.27;;
21170;SDS011;10743;52.160;20.910;2022-10-29T10:55:40;28.98;;;12.45;;
21170;SDS011;10743;52.160;20.910;2022-10-29T11:01:01;29.95;;;11.45;;
21170;SDS011;10743;52.160;20.910;2022-10-29T11:03:44;26.00;;;13.00;;
21170;SDS011;10743;52.160;20.910;2022-10-29T11:08:48;28.27;;;11.30;;
21170;SDS011;10743;52.160;20.910;2022-10-29T11:11:29;26.02;;;12.05;;
21170;SDS011;10743;52.160;20.910;2022-10-29T11:14:06;30.67;;;12.48;;
21170;SDS011;10743;52.160;20.910;2022-10-29T11:16:42;27.45;;;11.90;;
21170;SDS011;10743;52.160;20.910;2022-10-29T11:22:19;21.35;;;10.40;;
21170;SDS011;10743;52.160;20.910;2022-10-29T11:25:01;24.08;;;10.90;;
21170;SDS011;10743;52.160;20.910;2022-10-29T11:27:54;21.02;;;10.18;;
21170;SDS011;10743;52.160;20.910;2022-10-29T11:30:32;24.38;;;9.55;;
21170;SDS011;10743;52.160;20.910;2022-10-29T11:36:17;31.92;;;12.18;;
21170;SDS011;10743;52.160;20.910;2022-10-29T11:38:58;17.90;;;10.27;;
21170;SDS011;10743;52.160;20.910;2022-10-29T11:41:41;19.23;;;9.85;;
21170;SDS011;10743;52.160;20.910;2022-10-29T11:44:14;20.23;;;10.10;;
21170;SDS011;10743;52.160;20.910;2022-10-29T11:46:48;19.77;;;9.60;;
21170;SDS011;10743;52.160;20.910;2022-10-29T11:55:37;19.95;;;9.40;;
21170;SDS011;10743;52.160;20.910;2022-10-29T11:58:45;17.83;;;9.35;;
21170;SDS011;10743;52.160;20.910;2022-10-29T12:04:53;20.77;;;11.38;;
21170;SDS011;10743;52.160;20.910;2022-10-29T12:13:41;19.33;;;8.43;;
21170;SDS011;10743;52.160;20.910;2022-10-29T12:16:23;21.63;;;9.02;;
21170;SDS011;10743;52.160;20.910;2022-10-29T12:19:24;17.17;;;8.63;;
21170;SDS011;10743;52.160;20.910;2022-10-29T12:28:17;15.40;;;8.00;;
21170;SDS011;10743;52.160;20.910;2022-10-29T12:31:21;26.88;;;8.88;;
21170;SDS011;10743;52.160;20.910;2022-10-29T12:37:16;18.13;;;8.25;;
21170;SDS011;10743;52.160;20.910;2022-10-29T12:39:58;24.50;;;9.15;;
21170;SDS011;10743;52.160;20.910;2022-10-29T12:42:31;12.00;;;7.43;;
21170;SDS011;10743;52.160;20.910;2022-10-29T12:45:02;17.08;;;9.20;;
21170;SDS011;10743;52.160;20.910;2022-10-29T12:47:58;20.83;;;7.55;;
21170;SDS011;10743;52.160;20.910;2022-10-29T12:51:24;19.75;;;9.70;;
21170;SDS011;10743;52.160;20.910;2022-10-29T12:59:40;24.90;;;10.73;;
21170;SDS011;10743;52.160;20.910;2022-10-29T13:02:25;33.13;;;18.08;;
21170;SDS011;10743;52.160;20.910;2022-10-29T13:07:36;16.48;;;8.65;;
21170;SDS011;10743;52.160;20.910;2022-10-29T13:15:27;20.25;;;8.15;;
21170;SDS011;10743;52.160;20.910;2022-10-29T13:18:20;21.33;;;9.30;;
21170;SDS011;10743;52.160;20.910;2022-10-29T13:20:55;16.65;;;8.25;;
21170;SDS011;10743;52.160;20.910;2022-10-29T13:36:05;17.92;;;8.65;;
21170;SDS011;10743;52.160;20.910;2022-10-29T13:41:41;23.13;;;7.38;;
21170;SDS011;10743;52.160;20.910;2022-10-29T13:44:19;15.13;;;6.32;;
21170;SDS011;10743;52.160;20.910;2022-10-29T13:49:44;18.60;;;8.40;;
21170;SDS011;10743;52.160;20.910;2022-10-29T13:52:14;17.90;;;8.50;;
21170;SDS011;10743;52.160;20.910;2022-10-29T13:54:50;23.92;;;9.40;;
21170;SDS011;10743;52.160;20.910;2022-10-29T13:57:33;26.25;;;7.57;;
21170;SDS011;10743;52.160;20.910;2022-10-29T14:05:48;14.32;;;7.78;;
21170;SDS011;10743;52.160;20.910;2022-10-29T14:08:24;17.73;;;7.57;;
21170;SDS011;10743;52.160;20.910;2022-10-29T14:11:00;15.40;;;7.78;;
21170;SDS011;10743;52.160;20.910;2022-10-29T14:13:40;14.43;;;7.18;;
21170;SDS011;10743;52.160;20.910;2022-10-29T14:16:15;15.30;;;7.15;;
21170;SDS011;10743;52.160;20.910;2022-10-29T14:18:49;12.88;;;6.60;;
21170;SDS011;10743;52.160;20.910;2022-10-29T14:21:17;17.38;;;7.22;;
21170;SDS011;10743;52.160;20.910;2022-10-29T14:23:56;17.40;;;6.75;;
21170;SDS011;10743;52.160;20.910;2022-10-29T14:26:35;16.67;;;8.07;;
21170;SDS011;10743;52.160;20.910;2022-10-29T14:29:20;19.83;;;7.93;;
21170;SDS011;10743;52.160;20.910;2022-10-29T14:34:44;26.25;;;12.90;;
21170;SDS011;10743;52.160;20.910;2022-10-29T14:37:22;30.52;;;14.15;;
21170;SDS011;10743;52.160;20.910;2022-10-29T14:40:20;25.00;;;12.60;;
21170;SDS011;10743;52.160;20.910;2022-10-29T14:42:52;26.38;;;12.70;;
21170;SDS011;10743;52.160;20.910;2022-10-29T14:45:24;24.88;;;11.40;;
21170;SDS011;10743;52.160;20.910;2022-10-29T14:50:28;22.75;;;9.68;;
21170;SDS011;10743;52.160;20.910;2022-10-29T14:52:57;25.45;;;10.75;;
21170;SDS011;10743;52.160;20.910;2022-10-29T14:55:38;23.20;;;9.93;;
21170;SDS011;10743;52.160;20.910;2022-10-29T15:00:55;24.48;;;10.20;;
21170;SDS011;10743;52.160;20.910;2022-10-29T15:03:25;22.80;;;10.30;;
21170;SDS011;10743;52.160;20.910;2022-10-29T15:06:09;27.52;;;11.65;;
21170;SDS011;10743;52.160;20.910;2022-10-29T15:08:46;21.23;;;10.35;;
21170;SDS011;10743;52.160;20.910;2022-10-29T15:11:33;21.40;;;10.15;;
21170;SDS011;10743;52.160;20.910;2022-10-29T15:17:06;31.08;;;14.75;;
21170;SDS011;10743;52.160;20.910;2022-10-29T15:19:40;26.90;;;13.95;;
21170;SDS011;10743;52.160;20.910;2022-10-29T15:22:13;35.75;;;14.40;;
21170;SDS011;10743;52.160;20.910;2022-10-29T15:24:47;29.13;;;11.88;;
21170;SDS011;10743;52.160;20.910;2022-10-29T15:27:15;26.10;;;11.07;;
21170;SDS011;10743;52.160;20.910;2022-10-29T15:29:44;25.92;;;11.63;;
21170;SDS011;10743;52.160;20.910;2022-10-29T15:32:14;24.70;;;11.73;;
21170;SDS011;10743;52.160;20.910;2022-10-29T15:34:47;26.60;;;10.98;;
21170;SDS011;10743;52.160;20.910;2022-10-29T15:37:23;23.35;;;10.25;;
21170;SDS011;10743;52.160;20.910;2022-10-29T15:42:31;23.70;;;11.70;;
21170;SDS011;10743;52.160;20.910;2022-10-29T15:47:36;33.35;;;17.27;;
21170;SDS011;10743;52.160;20.910;2022-10-29T15:50:09;29.83;;;12.85;;
21170;SDS011;10743;52.160;20.910;2022-10-29T15:53:09;25.02;;;11.57;;
21170;SDS011;10743;52.160;20.910;2022-10-29T15:55:39;29.77;;;13.30;;
21170;SDS011;10743;52.160;20.910;2022-10-29T15:58:13;47.80;;;22.83;;
21170;SDS011;10743;52.160;20.910;2022-10-29T16:00:42;33.67;;;15.65;;
21170;SDS011;10743;52.160;20.910;2022-10-29T16:05:44;28.25;;;13.60;;
21170;SDS011;10743;52.160;20.910;2022-10-29T16:08:39;23.17;;;13.57;;
21170;SDS011;10743;52.160;20.910;2022-10-29T16:11:15;26.85;;;14.30;;
21170;SDS011;10743;52.160;20.910;2022-10-29T16:13:48;28.73;;;15.43;;
21170;SDS011;10743;52.160;20.910;2022-10-29T16:16:21;29.63;;;16.48;;
21170;SDS011;10743;52.160;20.910;2022-10-29T16:18:50;30.27;;;15.98;;
21170;SDS011;10743;52.160;20.910;2022-10-29T16:21:19;27.98;;;14.98;;
21170;SDS011;10743;52.160;20.910;2022-10-29T16:23:50;30.70;;;15.27;;
21170;SDS011;10743;52.160;20.910;2022-10-29T16:26:19;34.08;;;17.60;;
21170;SDS011;10743;52.160;20.910;2022-10-29T16:28:48;32.88;;;16.73;;
21170;SDS011;10743;52.160;20.910;2022-10-29T16:31:21;32.80;;;16.35;;
21170;SDS011;10743;52.160;20.910;2022-10-29T16:33:52;35.42;;;19.63;;
21170;SDS011;10743;52.160;20.910;2022-10-29T16:36:22;44.40;;;18.27;;
21170;SDS011;10743;52.160;20.910;2022-10-29T16:38:49;32.28;;;15.55;;
21170;SDS011;10743;52.160;20.910;2022-10-29T16:41:17;25.40;;;14.65;;
21170;SDS011;10743;52.160;20.910;2022-10-29T16:43:45;32.15;;;15.52;;
21170;SDS011;10743;52.160;20.910;2022-10-29T16:46:13;32.20;;;16.30;;
21170;SDS011;10743;52.160;20.910;2022-10-29T16:48:40;30.13;;;14.65;;
21170;SDS011;10743;52.160;20.910;2022-10-29T16:51:07;33.28;;;15.68;;
21170;SDS011;10743;52.160;20.910;2022-10-29T16:53:34;39.00;;;17.83;;
21170;SDS011;10743;52.160;20.910;2022-10-29T16:56:01;35.58;;;18.42;;
21170;SDS011;10743;52.160;20.910;2022-10-29T16:58:28;42.03;;;17.60;;
21170;SDS011;10743;52.160;20.910;2022-10-29T17:01:05;37.28;;;19.67;;
21170;SDS011;10743;52.160;20.910;2022-10-29T17:03:34;37.63;;;18.08;;
21170;SDS011;10743;52.160;20.910;2022-10-29T17:06:05;38.65;;;19.58;;
21170;SDS011;10743;52.160;20.910;2022-10-29T17:08:35;56.22;;;28.77;;
21170;SDS011;10743;52.160;20.910;2022-10-29T17:11:03;51.30;;;26.33;;
21170;SDS011;10743;52.160;20.910;2022-10-29T17:13:32;52.38;;;25.75;;
21170;SDS011;10743;52.160;20.910;2022-10-29T17:15:59;47.47;;;23.15;;
21170;SDS011;10743;52.160;20.910;2022-10-29T17:18:30;38.65;;;21.02;;
21170;SDS011;10743;52.160;20.910;2022-10-29T17:20:58;42.92;;;18.83;;